createdAt,value
2023-03-24T00:00:02.038Z,11.20
2023-03-24T00:02:37.831Z,10.80
2023-03-24T00:05:12.049Z,10.60
2023-03-24T00:07:43.723Z,10.40
2023-03-24T00:10:18.311Z,10.80
2023-03-24T00:12:49.356Z,11.30
2023-03-24T00:15:21.470Z,10.10
2023-03-24T00:17:53.187Z,10.00
2023-03-24T00:20:27.284Z,10.00
2023-03-24T00:22:59.564Z,9.90
2023-03-24T00:25:34.104Z,10.30
2023-03-24T00:28:06.037Z,10.00
2023-03-24T00:30:37.226Z,10.00
2023-03-24T00:33:07.562Z,10.00
2023-03-24T00:35:40.431Z,10.00
2023-03-24T00:38:10.620Z,9.90
2023-03-24T00:40:44.946Z,9.90
2023-03-24T00:45:46.476Z,10.00
2023-03-24T00:48:17.938Z,10.00
2023-03-24T00:50:51.819Z,10.30
2023-03-24T00:53:23.357Z,10.20
2023-03-24T00:55:54.054Z,10.20
2023-03-24T01:00:59.095Z,10.10
2023-03-24T01:03:29.874Z,10.20
2023-03-24T01:06:06.824Z,10.20
2023-03-24T01:11:10.544Z,10.40
2023-03-24T01:13:41.202Z,10.60
2023-03-24T01:16:12.680Z,10.50
2023-03-24T01:21:16.816Z,10.40
2023-03-24T01:31:19.051Z,10.40
2023-03-24T01:33:49.310Z,10.30
2023-03-24T01:36:22.271Z,10.40
2023-03-24T01:49:06.034Z,10.40
2023-03-24T01:51:43.352Z,10.50
2023-03-24T01:54:17.693Z,10.40
2023-03-24T01:56:51.693Z,10.40
2023-03-24T01:59:24.136Z,10.30
2023-03-24T02:02:14.067Z,10.20
2023-03-24T02:04:58.780Z,10.40
2023-03-24T02:07:42.926Z,10.10
2023-03-24T02:10:16.517Z,10.20
2023-03-24T02:12:47.714Z,10.20
2023-03-24T02:15:21.310Z,10.10
2023-03-24T02:18:02.419Z,10.10
2023-03-24T02:21:06.247Z,10.10
2023-03-24T02:24:25.855Z,10.00
2023-03-24T02:27:02.511Z,10.00
2023-03-24T02:29:59.154Z,10.00
2023-03-24T02:33:08.371Z,10.00
2023-03-24T02:36:08.538Z,10.00
2023-03-24T02:39:05.937Z,10.00
2023-03-24T02:41:44.989Z,10.00
2023-03-24T02:44:23.079Z,10.00
2023-03-24T02:46:59.011Z,10.00
2023-03-24T02:49:33.836Z,9.90
2023-03-24T02:52:09.750Z,10.00
2023-03-24T02:54:48.387Z,10.00
2023-03-24T02:57:25.680Z,10.10
2023-03-24T03:00:20.236Z,10.00
2023-03-24T03:03:12.276Z,9.90
2023-03-24T03:05:49.363Z,10.10
2023-03-24T03:08:21.884Z,10.10
2023-03-24T03:10:54.812Z,10.10
2023-03-24T03:13:33.041Z,10.10
2023-03-24T03:16:07.115Z,10.10
2023-03-24T03:18:43.616Z,10.20
2023-03-24T03:21:17.666Z,10.20
2023-03-24T03:23:52.801Z,10.10
2023-03-24T03:26:26.953Z,10.20
2023-03-24T03:29:05.167Z,10.00
2023-03-24T03:31:42.051Z,10.20
2023-03-24T03:34:17.311Z,10.30
2023-03-24T03:36:52.274Z,10.10
2023-03-24T03:39:27.019Z,10.20
2023-03-24T03:44:31.567Z,10.10
2023-03-24T03:54:45.550Z,10.10
2023-03-24T03:57:17.153Z,10.20
2023-03-24T04:00:25.944Z,10.20
2023-03-24T04:03:38.940Z,10.20
2023-03-24T04:06:21.225Z,10.00
2023-03-24T04:08:53.727Z,10.40
2023-03-24T04:11:37.016Z,10.30
2023-03-24T04:14:44.687Z,10.50
2023-03-24T04:17:48.836Z,10.40
2023-03-24T04:20:38.505Z,10.30
2023-03-24T04:23:18.594Z,5.90
2023-03-24T04:25:58.816Z,10.50
2023-03-24T04:28:37.678Z,10.50
2023-03-24T04:31:16.454Z,10.40
2023-03-24T04:33:53.629Z,11.10
2023-03-24T04:36:29.639Z,10.60
2023-03-24T04:39:28.357Z,10.60
2023-03-24T04:42:04.492Z,10.50
2023-03-24T04:44:35.791Z,10.50
2023-03-24T04:47:32.221Z,10.50
2023-03-24T04:50:32.795Z,10.70
2023-03-24T04:55:48.754Z,10.60
2023-03-24T04:58:22.077Z,10.70
2023-03-24T05:00:52.751Z,10.80
2023-03-24T05:05:56.083Z,10.60
2023-03-24T05:13:27.112Z,10.50
2023-03-24T05:16:02.637Z,10.70
2023-03-24T05:18:41.833Z,10.80
2023-03-24T05:21:15.948Z,10.70
2023-03-24T05:23:46.250Z,10.80
2023-03-24T05:26:16.533Z,10.80
2023-03-24T05:31:34.196Z,10.80
2023-03-24T05:34:15.975Z,10.80
2023-03-24T05:37:03.188Z,10.60
2023-03-24T05:42:09.445Z,10.90
2023-03-24T05:47:16.520Z,10.80
2023-03-24T05:49:47.565Z,10.70
2023-03-24T05:52:20.793Z,10.90
2023-03-24T05:57:30.535Z,11.10
2023-03-24T06:00:20.759Z,11.00
2023-03-24T06:03:00.163Z,11.00
2023-03-24T06:05:47.926Z,11.20
2023-03-24T06:08:21.618Z,11.20
2023-03-24T06:13:25.188Z,11.20
2023-03-24T06:18:43.137Z,11.40
2023-03-24T06:24:07.172Z,11.40
2023-03-24T06:29:08.310Z,11.70
2023-03-24T06:31:41.764Z,11.50
2023-03-24T06:36:43.642Z,11.50
2023-03-24T06:39:16.552Z,11.40
2023-03-24T06:41:46.917Z,11.20
2023-03-24T06:44:17.042Z,11.50
2023-03-24T06:46:47.550Z,11.30
2023-03-24T06:49:17.628Z,11.10
2023-03-24T06:51:47.704Z,11.00
2023-03-24T06:54:22.403Z,11.30
2023-03-24T06:59:25.133Z,9.70
2023-03-24T07:01:55.760Z,11.20
2023-03-24T07:04:29.156Z,11.20
2023-03-24T07:07:34.194Z,11.20
2023-03-24T07:10:21.864Z,11.20
2023-03-24T07:12:52.692Z,11.30
2023-03-24T07:15:22.792Z,11.40
2023-03-24T07:17:53.030Z,11.70
2023-03-24T07:20:38.807Z,11.60
2023-03-24T07:23:15.398Z,11.60
2023-03-24T07:25:48.471Z,11.70
2023-03-24T07:28:25.521Z,11.80
2023-03-24T07:30:56.115Z,11.80
2023-03-24T07:33:27.401Z,11.80
2023-03-24T07:35:59.721Z,11.80
2023-03-24T07:38:31.186Z,11.70
2023-03-24T07:41:09.368Z,11.70
2023-03-24T07:43:43.337Z,11.90
2023-03-24T07:46:28.839Z,11.70
2023-03-24T07:49:05.708Z,11.70
2023-03-24T07:51:43.073Z,11.70
2023-03-24T07:54:33.723Z,11.70
2023-03-24T07:57:09.640Z,11.70
2023-03-24T07:59:41.885Z,11.70
2023-03-24T08:02:21.778Z,11.70
2023-03-24T08:04:59.739Z,11.70
2023-03-24T08:07:56.133Z,11.80
2023-03-24T08:10:28.242Z,11.70
2023-03-24T08:13:02.084Z,11.80
2023-03-24T08:15:32.497Z,11.80
2023-03-24T08:18:04.109Z,11.80
2023-03-24T08:20:34.218Z,11.80
2023-03-24T08:23:05.098Z,11.80
2023-03-24T08:25:35.644Z,11.90
2023-03-24T08:28:08.976Z,12.20
2023-03-24T08:30:39.267Z,11.90
2023-03-24T08:33:11.424Z,11.90
2023-03-24T08:35:43.059Z,11.90
2023-03-24T08:38:15.672Z,12.00
2023-03-24T08:40:49.124Z,11.90
2023-03-24T08:43:23.416Z,11.90
2023-03-24T08:45:53.596Z,11.80
2023-03-24T08:48:23.687Z,11.80
2023-03-24T08:50:53.923Z,11.80
2023-03-24T08:53:24.471Z,11.70
2023-03-24T08:55:54.523Z,11.80
2023-03-24T08:58:27.235Z,11.70
2023-03-24T09:00:57.470Z,11.30
2023-03-24T09:03:27.564Z,11.50
2023-03-24T09:06:00.140Z,11.50
2023-03-24T09:08:30.812Z,11.40
2023-03-24T09:11:01.196Z,11.30
2023-03-24T09:13:33.996Z,11.30
2023-03-24T09:16:06.472Z,11.20
2023-03-24T09:18:37.466Z,11.20
2023-03-24T09:21:08.260Z,11.20
2023-03-24T09:23:38.951Z,11.10
2023-03-24T09:26:09.698Z,11.10
2023-03-24T09:28:42.326Z,11.00
2023-03-24T09:31:13.285Z,11.00
2023-03-24T09:36:14.529Z,11.00
2023-03-24T09:38:44.585Z,11.00
2023-03-24T09:41:20.675Z,11.00
2023-03-24T09:43:57.926Z,10.90
2023-03-24T09:46:34.118Z,11.00
2023-03-24T09:49:04.241Z,10.90
2023-03-24T09:51:38.932Z,11.00
2023-03-24T09:54:17.584Z,11.00
2023-03-24T09:56:51.688Z,12.70
2023-03-24T09:59:32.550Z,11.10
2023-03-24T10:07:12.781Z,11.50
2023-03-24T10:09:42.851Z,11.40
2023-03-24T10:12:24.196Z,11.80
2023-03-24T10:15:07.291Z,11.80
2023-03-24T10:17:46.395Z,12.00
2023-03-24T10:20:28.321Z,12.00
2023-03-24T10:23:04.117Z,12.00
2023-03-24T10:25:45.168Z,12.00
2023-03-24T10:28:21.647Z,12.10
2023-03-24T10:30:57.010Z,12.20
2023-03-24T10:33:27.273Z,12.60
2023-03-24T10:36:05.227Z,12.20
2023-03-24T10:38:36.862Z,13.40
2023-03-24T10:41:08.010Z,12.20
2023-03-24T10:43:38.370Z,12.20
2023-03-24T10:46:15.211Z,12.10
2023-03-24T10:48:47.587Z,12.10
2023-03-24T10:51:19.788Z,12.20
2023-03-24T10:53:52.225Z,12.20
2023-03-24T10:56:41.021Z,12.10
2023-03-24T10:59:22.764Z,12.10
2023-03-24T11:02:00.684Z,12.20
2023-03-24T11:04:33.930Z,12.20
2023-03-24T11:07:08.005Z,12.20
2023-03-24T11:09:45.933Z,12.10
2023-03-24T11:12:27.702Z,12.10
2023-03-24T11:15:19.703Z,12.20
2023-03-24T11:17:58.939Z,12.40
2023-03-24T11:20:33.402Z,12.20
2023-03-24T11:23:06.156Z,12.30
2023-03-24T11:25:38.984Z,12.30
2023-03-24T11:28:11.658Z,12.30
2023-03-24T11:30:49.531Z,12.30
2023-03-24T11:33:34.958Z,12.40
2023-03-24T11:36:33.116Z,12.30
2023-03-24T11:39:05.526Z,12.30
2023-03-24T11:41:36.130Z,14.00
2023-03-24T11:44:20.208Z,12.30
2023-03-24T11:46:53.939Z,12.30
2023-03-24T11:49:30.555Z,12.30
2023-03-24T11:52:00.974Z,12.40
2023-03-24T11:54:36.765Z,12.40
2023-03-24T11:57:10.792Z,12.40
2023-03-24T11:59:43.189Z,12.50
2023-03-24T12:02:25.594Z,12.60
2023-03-24T12:05:13.496Z,12.60
2023-03-24T12:08:04.230Z,12.70
2023-03-24T12:10:45.854Z,12.70
2023-03-24T12:13:31.865Z,12.80
2023-03-24T12:16:18.430Z,12.80
2023-03-24T12:19:03.291Z,12.80
2023-03-24T12:21:55.204Z,12.70
2023-03-24T12:24:39.815Z,12.70
2023-03-24T12:27:20.669Z,12.60
2023-03-24T12:30:04.578Z,12.60
2023-03-24T12:32:54.209Z,12.60
2023-03-24T12:36:00.593Z,12.60
2023-03-24T12:39:01.370Z,12.60
2023-03-24T12:41:57.129Z,12.80
2023-03-24T12:44:51.737Z,13.00
2023-03-24T12:47:33.167Z,13.20
2023-03-24T12:50:22.354Z,13.30
2023-03-24T12:53:14.309Z,13.20
2023-03-24T12:55:51.264Z,13.20
2023-03-24T12:58:26.939Z,13.20
2023-03-24T13:01:04.268Z,13.30
2023-03-24T13:03:39.458Z,13.40
2023-03-24T13:06:19.020Z,13.30
2023-03-24T13:09:05.118Z,13.30
2023-03-24T13:11:45.866Z,13.30
2023-03-24T13:14:21.806Z,13.20
2023-03-24T13:16:53.817Z,13.20
2023-03-24T13:19:26.651Z,13.20
2023-03-24T13:21:59.012Z,12.80
2023-03-24T13:24:30.185Z,12.20
2023-03-24T13:27:09.398Z,12.30
2023-03-24T13:30:02.845Z,11.20
2023-03-24T13:32:36.396Z,10.90
2023-03-24T13:35:15.308Z,10.80
2023-03-24T13:37:51.123Z,10.80
2023-03-24T13:40:26.994Z,10.80
2023-03-24T13:43:01.745Z,10.80
2023-03-24T13:45:42.087Z,10.90
2023-03-24T13:48:33.287Z,10.90
2023-03-24T13:51:06.937Z,10.90
2023-03-24T13:53:41.310Z,10.90
2023-03-24T13:56:13.008Z,10.90
2023-03-24T13:59:25.481Z,10.80
2023-03-24T14:02:20.597Z,10.80
2023-03-24T14:04:52.819Z,10.80
2023-03-24T14:07:45.559Z,10.90
2023-03-24T14:10:40.443Z,10.90
2023-03-24T14:13:22.176Z,10.90
2023-03-24T14:15:56.029Z,11.70
2023-03-24T14:18:45.378Z,11.00
2023-03-24T14:21:15.754Z,11.10
2023-03-24T14:23:48.316Z,11.20
2023-03-24T14:26:34.249Z,11.20
2023-03-24T14:29:04.513Z,11.20
2023-03-24T14:31:38.993Z,11.20
2023-03-24T14:34:11.973Z,11.10
2023-03-24T14:36:43.807Z,11.00
2023-03-24T14:39:23.024Z,11.00
2023-03-24T14:41:53.287Z,11.00
2023-03-24T14:44:57.496Z,11.00
2023-03-24T14:47:33.242Z,10.80
2023-03-24T14:50:05.933Z,10.80
2023-03-24T14:52:39.723Z,10.80
2023-03-24T14:55:16.684Z,10.70
2023-03-24T14:57:49.151Z,10.60
2023-03-24T15:00:24.192Z,10.60
2023-03-24T15:03:02.935Z,10.50
2023-03-24T15:05:34.107Z,10.40
2023-03-24T15:08:16.933Z,10.10
2023-03-24T15:10:53.610Z,10.20
2023-03-24T15:13:32.374Z,10.20
2023-03-24T15:16:03.324Z,10.10
2023-03-24T15:18:40.313Z,10.00
2023-03-24T15:21:19.815Z,10.00
2023-03-24T15:23:50.849Z,10.00
2023-03-24T15:26:25.203Z,9.90
2023-03-24T15:29:02.824Z,9.90
2023-03-24T15:31:33.222Z,9.90
2023-03-24T15:34:26.754Z,10.00
2023-03-24T15:36:58.132Z,9.90
2023-03-24T15:39:31.309Z,11.90
2023-03-24T15:44:33.462Z,9.70
2023-03-24T15:47:06.838Z,9.70
2023-03-24T15:49:40.431Z,9.70
2023-03-24T15:52:27.439Z,9.60
2023-03-24T15:55:00.602Z,9.60
2023-03-24T16:00:16.561Z,9.50
2023-03-24T16:02:52.463Z,9.40
2023-03-24T16:05:27.371Z,9.40
2023-03-24T16:08:04.320Z,9.40
2023-03-24T16:10:40.399Z,9.40
2023-03-24T16:13:18.172Z,9.40
2023-03-24T16:15:50.558Z,9.40
2023-03-24T16:18:23.361Z,9.40
2023-03-24T16:20:56.330Z,9.30
2023-03-24T16:23:26.860Z,9.40
2023-03-24T16:25:56.953Z,9.30
2023-03-24T16:28:27.847Z,9.30
2023-03-24T16:31:02.172Z,9.30
2023-03-24T16:33:33.152Z,9.20
2023-03-24T16:36:05.966Z,9.20
2023-03-24T16:41:07.382Z,9.30
2023-03-24T16:43:37.466Z,9.30
2023-03-24T16:48:38.942Z,9.30
2023-03-24T16:51:15.848Z,9.30
2023-03-24T16:53:46.888Z,9.40
2023-03-24T16:56:19.520Z,9.40
2023-03-24T16:58:52.380Z,9.40
2023-03-24T17:01:29.917Z,9.40
2023-03-24T17:04:01.491Z,9.30
2023-03-24T17:06:35.981Z,9.20
2023-03-24T17:09:06.984Z,9.20
2023-03-24T17:11:39.399Z,9.20
2023-03-24T17:14:12.447Z,9.20
2023-03-24T17:16:44.136Z,9.20
2023-03-24T17:19:15.133Z,9.20
2023-03-24T17:21:52.159Z,9.20
2023-03-24T17:24:24.299Z,9.10
2023-03-24T17:26:54.735Z,9.10
2023-03-24T17:29:25.689Z,9.20
2023-03-24T17:31:57.124Z,9.10
2023-03-24T17:37:00.178Z,9.10
2023-03-24T17:39:30.311Z,9.10
2023-03-24T17:42:01.630Z,9.10
2023-03-24T17:44:31.962Z,9.10
2023-03-24T17:47:02.069Z,9.40
2023-03-24T17:49:33.555Z,8.80
2023-03-24T17:52:06.362Z,9.00
2023-03-24T17:54:36.620Z,9.00
2023-03-24T17:57:07.606Z,8.90
2023-03-24T17:59:38.057Z,8.90
2023-03-24T18:02:08.525Z,8.90
2023-03-24T18:04:38.987Z,8.90
2023-03-24T18:07:11.901Z,9.00
2023-03-24T18:09:42.167Z,8.90
2023-03-24T18:12:12.398Z,8.80
2023-03-24T18:17:12.902Z,8.80
2023-03-24T18:19:43.174Z,8.70
2023-03-24T18:22:16.139Z,8.80
2023-03-24T18:24:46.295Z,8.80
2023-03-24T18:27:16.392Z,8.80
2023-03-24T18:29:46.464Z,8.70
2023-03-24T18:32:16.685Z,8.70
2023-03-24T18:34:47.248Z,8.70
2023-03-24T18:37:19.865Z,8.60
2023-03-24T18:39:49.905Z,8.60
2023-03-24T18:42:23.473Z,8.60
2023-03-24T18:44:53.605Z,8.50
2023-03-24T18:52:27.869Z,8.40
2023-03-24T19:07:37.240Z,8.20
2023-03-24T19:10:08.021Z,8.10
2023-03-24T19:12:38.230Z,8.10
2023-03-24T19:15:09.661Z,7.10
2023-03-24T19:17:39.777Z,8.00
2023-03-24T19:20:12.270Z,8.00
2023-03-24T19:22:44.977Z,8.00
2023-03-24T19:25:15.652Z,8.00
2023-03-24T19:30:17.393Z,7.80
2023-03-24T19:37:51.663Z,7.80
2023-03-24T19:40:22.238Z,7.80
2023-03-24T19:47:53.155Z,7.60
2023-03-24T19:50:23.424Z,7.50
2023-03-24T19:52:56.204Z,7.50
2023-03-24T19:57:59.721Z,7.50
2023-03-24T20:00:29.941Z,7.50
2023-03-24T20:05:30.698Z,7.40
2023-03-24T20:08:03.348Z,7.20
2023-03-24T20:10:33.459Z,7.40
2023-03-24T20:13:03.571Z,7.40
2023-03-24T20:18:04.682Z,7.40
2023-03-24T20:23:09.684Z,7.30
2023-03-24T20:25:43.264Z,7.20
2023-03-24T20:28:13.322Z,7.10
2023-03-24T20:33:15.734Z,7.10
2023-03-24T20:35:47.233Z,7.10
2023-03-24T20:38:19.852Z,7.10
2023-03-24T20:40:49.884Z,7.10
2023-03-24T20:43:20.730Z,7.10
2023-03-24T20:45:50.990Z,7.00
2023-03-24T20:48:21.532Z,7.10
2023-03-24T20:50:51.653Z,7.10
2023-03-24T20:53:25.041Z,7.00
2023-03-24T20:56:01.825Z,7.00
2023-03-24T20:58:32.704Z,6.90
2023-03-24T21:01:03.764Z,7.00
2023-03-24T21:03:33.893Z,7.00
2023-03-24T21:06:04.291Z,7.00
2023-03-24T21:08:37.778Z,7.00
2023-03-24T21:11:08.150Z,7.00
2023-03-24T21:13:38.339Z,6.90
2023-03-24T21:16:09.878Z,7.10
2023-03-24T21:18:42.774Z,6.80
2023-03-24T21:21:13.192Z,6.80
2023-03-24T21:23:46.369Z,6.70
2023-03-24T21:26:18.606Z,6.70
2023-03-24T21:28:49.183Z,6.80
2023-03-24T21:31:23.155Z,6.70
2023-03-24T21:33:54.105Z,6.70
2023-03-24T21:36:25.078Z,6.60
2023-03-24T21:38:57.725Z,6.60
2023-03-24T21:41:28.988Z,6.50
2023-03-24T21:44:00.746Z,6.60
2023-03-24T21:46:32.300Z,6.60
2023-03-24T21:49:02.478Z,6.50
2023-03-24T21:51:37.367Z,6.50
2023-03-24T21:54:10.111Z,6.50
2023-03-24T21:56:40.733Z,6.50
2023-03-24T21:59:11.348Z,6.50
2023-03-24T22:01:42.232Z,6.40
2023-03-24T22:04:13.582Z,6.40
2023-03-24T22:09:19.260Z,6.30
2023-03-24T22:11:49.642Z,6.30
2023-03-24T22:14:21.313Z,6.20
2023-03-24T22:16:51.906Z,6.10
2023-03-24T22:19:22.563Z,6.10
2023-03-24T22:24:34.286Z,6.10
2023-03-24T22:27:04.304Z,6.20
2023-03-24T22:29:34.295Z,6.10
2023-03-24T22:32:04.551Z,6.30
2023-03-24T22:34:34.627Z,6.30
2023-03-24T22:37:04.694Z,6.40
2023-03-24T22:39:37.374Z,6.50
2023-03-24T22:42:07.819Z,6.50
2023-03-24T22:47:11.063Z,6.70
2023-03-24T22:49:41.747Z,6.80
2023-03-24T22:52:12.051Z,6.90
2023-03-24T22:54:44.806Z,7.00
2023-03-24T22:59:45.500Z,7.10
2023-03-24T23:02:15.574Z,7.20
2023-03-24T23:04:46.042Z,7.20
2023-03-24T23:07:16.301Z,7.30
2023-03-24T23:09:48.998Z,7.40
2023-03-24T23:12:19.230Z,7.50
2023-03-24T23:25:00.540Z,8.10
2023-03-24T23:27:36.736Z,8.10
2023-03-24T23:30:09.052Z,8.40
2023-03-24T23:32:41.302Z,8.20
2023-03-24T23:35:13.019Z,8.20
2023-03-24T23:37:43.173Z,8.10
2023-03-24T23:40:17.328Z,8.00
2023-03-24T23:42:49.071Z,7.80
2023-03-24T23:45:21.055Z,7.80
2023-03-24T23:47:53.083Z,7.70
2023-03-24T23:50:23.802Z,7.60
2023-03-24T23:55:26.841Z,7.50
